sensor_id;sensor_type;location;lat;lon;timestamp;P1;durP1;ratioP1;P2;durP2;ratioP2
7013;SDS011;3547;50.774;12.918;2022-10-31T00:01:24;6.63;;;2.63;;
7013;SDS011;3547;50.774;12.918;2022-10-31T00:03:52;4.93;;;3.00;;
7013;SDS011;3547;50.774;12.918;2022-10-31T00:06:19;4.17;;;2.80;;
7013;SDS011;3547;50.774;12.918;2022-10-31T00:08:47;5.67;;;2.17;;
7013;SDS011;3547;50.774;12.918;2022-10-31T00:11:21;2.73;;;1.70;;
7013;SDS011;3547;50.774;12.918;2022-10-31T00:13:47;5.17;;;3.23;;
7013;SDS011;3547;50.774;12.918;2022-10-31T00:16:17;13.40;;;6.80;;
7013;SDS011;3547;50.774;12.918;2022-10-31T00:18:49;10.50;;;4.50;;
7013;SDS011;3547;50.774;12.918;2022-10-31T00:21:17;4.47;;;2.80;;
7013;SDS011;3547;50.774;12.918;2022-10-31T00:23:43;4.87;;;2.17;;
7013;SDS011;3547;50.774;12.918;2022-10-31T00:26:09;6.90;;;2.43;;
7013;SDS011;3547;50.774;12.918;2022-10-31T00:28:35;6.17;;;4.60;;
7013;SDS011;3547;50.774;12.918;2022-10-31T00:31:03;9.87;;;3.07;;
7013;SDS011;3547;50.774;12.918;2022-10-31T00:33:32;4.17;;;3.20;;
7013;SDS011;3547;50.774;12.918;2022-10-31T00:36:00;8.07;;;5.90;;
7013;SDS011;3547;50.774;12.918;2022-10-31T00:38:26;6.90;;;4.23;;
7013;SDS011;3547;50.774;12.918;2022-10-31T00:40:52;8.30;;;4.33;;
7013;SDS011;3547;50.774;12.918;2022-10-31T00:43:18;8.17;;;6.07;;
7013;SDS011;3547;50.774;12.918;2022-10-31T00:45:44;10.77;;;6.00;;
7013;SDS011;3547;50.774;12.918;2022-10-31T00:48:11;8.00;;;6.20;;
7013;SDS011;3547;50.774;12.918;2022-10-31T00:50:37;9.67;;;5.00;;
7013;SDS011;3547;50.774;12.918;2022-10-31T00:53:04;8.70;;;4.07;;
7013;SDS011;3547;50.774;12.918;2022-10-31T00:55:30;6.00;;;5.27;;
7013;SDS011;3547;50.774;12.918;2022-10-31T00:57:56;8.27;;;5.60;;
7013;SDS011;3547;50.774;12.918;2022-10-31T01:00:23;9.40;;;5.30;;
7013;SDS011;3547;50.774;12.918;2022-10-31T01:02:49;10.73;;;4.90;;
7013;SDS011;3547;50.774;12.918;2022-10-31T01:05:15;9.77;;;5.40;;
7013;SDS011;3547;50.774;12.918;2022-10-31T01:07:42;14.53;;;6.17;;
7013;SDS011;3547;50.774;12.918;2022-10-31T01:10:09;10.43;;;6.27;;
7013;SDS011;3547;50.774;12.918;2022-10-31T01:12:36;9.67;;;5.93;;
7013;SDS011;3547;50.774;12.918;2022-10-31T01:15:04;8.10;;;4.97;;
7013;SDS011;3547;50.774;12.918;2022-10-31T01:17:30;11.33;;;5.40;;
7013;SDS011;3547;50.774;12.918;2022-10-31T01:19:57;6.90;;;4.70;;
7013;SDS011;3547;50.774;12.918;2022-10-31T01:22:44;10.07;;;5.77;;
7013;SDS011;3547;50.774;12.918;2022-10-31T01:25:23;9.87;;;5.90;;
7013;SDS011;3547;50.774;12.918;2022-10-31T01:27:50;7.53;;;5.90;;
7013;SDS011;3547;50.774;12.918;2022-10-31T01:30:19;9.30;;;6.07;;
7013;SDS011;3547;50.774;12.918;2022-10-31T01:32:51;7.37;;;5.37;;
7013;SDS011;3547;50.774;12.918;2022-10-31T01:35:32;6.40;;;5.10;;
7013;SDS011;3547;50.774;12.918;2022-10-31T01:38:02;9.70;;;5.43;;
7013;SDS011;3547;50.774;12.918;2022-10-31T01:40:29;10.30;;;5.90;;
7013;SDS011;3547;50.774;12.918;2022-10-31T01:42:55;9.43;;;5.23;;
7013;SDS011;3547;50.774;12.918;2022-10-31T01:45:21;6.77;;;4.77;;
7013;SDS011;3547;50.774;12.918;2022-10-31T01:51:30;8.37;;;5.17;;
7013;SDS011;3547;50.774;12.918;2022-10-31T01:54:01;9.33;;;5.43;;
7013;SDS011;3547;50.774;12.918;2022-10-31T01:56:31;8.60;;;5.33;;
7013;SDS011;3547;50.774;12.918;2022-10-31T01:59:00;4.97;;;3.60;;
7013;SDS011;3547;50.774;12.918;2022-10-31T02:01:30;10.63;;;4.57;;
7013;SDS011;3547;50.774;12.918;2022-10-31T02:03:57;7.80;;;4.63;;
7013;SDS011;3547;50.774;12.918;2022-10-31T02:06:27;6.40;;;4.77;;
7013;SDS011;3547;50.774;12.918;2022-10-31T02:08:59;9.23;;;4.77;;
7013;SDS011;3547;50.774;12.918;2022-10-31T02:11:27;8.33;;;4.30;;
7013;SDS011;3547;50.774;12.918;2022-10-31T02:13:54;9.33;;;5.40;;
7013;SDS011;3547;50.774;12.918;2022-10-31T02:16:21;7.23;;;5.20;;
7013;SDS011;3547;50.774;12.918;2022-10-31T02:18:47;6.20;;;4.70;;
7013;SDS011;3547;50.774;12.918;2022-10-31T02:32:06;8.80;;;4.43;;
7013;SDS011;3547;50.774;12.918;2022-10-31T02:35:09;8.73;;;5.13;;
7013;SDS011;3547;50.774;12.918;2022-10-31T02:40:49;7.13;;;4.33;;
7013;SDS011;3547;50.774;12.918;2022-10-31T02:43:31;11.73;;;4.23;;
7013;SDS011;3547;50.774;12.918;2022-10-31T02:46:19;6.60;;;4.03;;
7013;SDS011;3547;50.774;12.918;2022-10-31T02:49:06;7.37;;;4.70;;
7013;SDS011;3547;50.774;12.918;2022-10-31T02:51:43;8.67;;;4.57;;
7013;SDS011;3547;50.774;12.918;2022-10-31T02:54:21;5.50;;;4.17;;
7013;SDS011;3547;50.774;12.918;2022-10-31T02:56:50;4.73;;;3.47;;
7013;SDS011;3547;50.774;12.918;2022-10-31T03:02:47;3.50;;;2.83;;
7013;SDS011;3547;50.774;12.918;2022-10-31T03:08:58;5.27;;;2.60;;
7013;SDS011;3547;50.774;12.918;2022-10-31T03:11:57;3.30;;;2.53;;
7013;SDS011;3547;50.774;12.918;2022-10-31T03:20:37;4.87;;;2.23;;
7013;SDS011;3547;50.774;12.918;2022-10-31T03:23:13;6.70;;;2.80;;
7013;SDS011;3547;50.774;12.918;2022-10-31T03:25:41;4.00;;;3.50;;
7013;SDS011;3547;50.774;12.918;2022-10-31T03:28:09;5.40;;;2.80;;
7013;SDS011;3547;50.774;12.918;2022-10-31T03:30:39;4.47;;;3.50;;
7013;SDS011;3547;50.774;12.918;2022-10-31T03:33:08;6.33;;;3.57;;
7013;SDS011;3547;50.774;12.918;2022-10-31T03:35:40;4.47;;;3.40;;
7013;SDS011;3547;50.774;12.918;2022-10-31T03:38:08;3.97;;;3.27;;
7013;SDS011;3547;50.774;12.918;2022-10-31T03:40:36;6.87;;;4.30;;
7013;SDS011;3547;50.774;12.918;2022-10-31T03:43:05;5.17;;;3.73;;
7013;SDS011;3547;50.774;12.918;2022-10-31T03:45:45;4.93;;;3.60;;
7013;SDS011;3547;50.774;12.918;2022-10-31T03:48:12;9.13;;;4.23;;
7013;SDS011;3547;50.774;12.918;2022-10-31T03:51:01;4.57;;;3.27;;
7013;SDS011;3547;50.774;12.918;2022-10-31T03:54:13;4.87;;;2.90;;
7013;SDS011;3547;50.774;12.918;2022-10-31T03:56:37;5.33;;;3.30;;
7013;SDS011;3547;50.774;12.918;2022-10-31T04:00:10;5.23;;;3.00;;
7013;SDS011;3547;50.774;12.918;2022-10-31T04:02:14;4.00;;;2.50;;
7013;SDS011;3547;50.774;12.918;2022-10-31T04:04:44;3.80;;;3.20;;
7013;SDS011;3547;50.774;12.918;2022-10-31T04:07:12;5.83;;;3.63;;
7013;SDS011;3547;50.774;12.918;2022-10-31T04:09:41;4.73;;;2.80;;
7013;SDS011;3547;50.774;12.918;2022-10-31T04:12:11;4.43;;;2.40;;
7013;SDS011;3547;50.774;12.918;2022-10-31T04:14:43;4.07;;;2.80;;
7013;SDS011;3547;50.774;12.918;2022-10-31T04:17:14;6.87;;;3.77;;
7013;SDS011;3547;50.774;12.918;2022-10-31T04:19:43;4.03;;;3.00;;
7013;SDS011;3547;50.774;12.918;2022-10-31T04:22:09;3.77;;;2.63;;
7013;SDS011;3547;50.774;12.918;2022-10-31T04:24:36;6.93;;;2.50;;
7013;SDS011;3547;50.774;12.918;2022-10-31T04:27:04;3.77;;;2.13;;
7013;SDS011;3547;50.774;12.918;2022-10-31T04:29:30;5.50;;;2.30;;
7013;SDS011;3547;50.774;12.918;2022-10-31T04:31:56;2.10;;;1.83;;
7013;SDS011;3547;50.774;12.918;2022-10-31T04:34:23;3.93;;;2.20;;
7013;SDS011;3547;50.774;12.918;2022-10-31T04:36:49;3.63;;;2.73;;
7013;SDS011;3547;50.774;12.918;2022-10-31T04:39:15;9.67;;;2.47;;
7013;SDS011;3547;50.774;12.918;2022-10-31T04:41:41;4.57;;;2.13;;
7013;SDS011;3547;50.774;12.918;2022-10-31T04:44:10;4.10;;;2.00;;
7013;SDS011;3547;50.774;12.918;2022-10-31T04:51:48;7.17;;;3.27;;
7013;SDS011;3547;50.774;12.918;2022-10-31T04:54:15;5.17;;;3.37;;
7013;SDS011;3547;50.774;12.918;2022-10-31T05:02:11;5.80;;;3.60;;
7013;SDS011;3547;50.774;12.918;2022-10-31T05:04:37;4.87;;;3.40;;
7013;SDS011;3547;50.774;12.918;2022-10-31T05:07:03;5.43;;;2.50;;
7013;SDS011;3547;50.774;12.918;2022-10-31T05:09:29;5.93;;;3.13;;
7013;SDS011;3547;50.774;12.918;2022-10-31T05:11:55;4.73;;;3.00;;
7013;SDS011;3547;50.774;12.918;2022-10-31T05:14:24;4.00;;;3.20;;
7013;SDS011;3547;50.774;12.918;2022-10-31T05:16:50;4.37;;;2.20;;
7013;SDS011;3547;50.774;12.918;2022-10-31T05:19:16;2.77;;;1.90;;
7013;SDS011;3547;50.774;12.918;2022-10-31T05:21:53;3.50;;;2.40;;
7013;SDS011;3547;50.774;12.918;2022-10-31T05:24:19;6.73;;;3.13;;
7013;SDS011;3547;50.774;12.918;2022-10-31T05:26:50;4.13;;;2.50;;
7013;SDS011;3547;50.774;12.918;2022-10-31T05:29:20;3.60;;;2.60;;
7013;SDS011;3547;50.774;12.918;2022-10-31T05:31:47;7.53;;;3.63;;
7013;SDS011;3547;50.774;12.918;2022-10-31T05:52:33;5.70;;;3.30;;
7013;SDS011;3547;50.774;12.918;2022-10-31T05:55:00;4.23;;;3.03;;
7013;SDS011;3547;50.774;12.918;2022-10-31T05:57:29;3.17;;;2.70;;
7013;SDS011;3547;50.774;12.918;2022-10-31T05:59:57;5.03;;;3.20;;
7013;SDS011;3547;50.774;12.918;2022-10-31T06:02:23;6.77;;;3.53;;
7013;SDS011;3547;50.774;12.918;2022-10-31T06:05:01;4.40;;;3.30;;
7013;SDS011;3547;50.774;12.918;2022-10-31T06:07:31;4.90;;;2.90;;
7013;SDS011;3547;50.774;12.918;2022-10-31T06:10:01;4.50;;;2.97;;
7013;SDS011;3547;50.774;12.918;2022-10-31T06:12:35;4.10;;;3.07;;
7013;SDS011;3547;50.774;12.918;2022-10-31T06:15:11;7.60;;;2.87;;
7013;SDS011;3547;50.774;12.918;2022-10-31T06:17:37;6.80;;;3.03;;
7013;SDS011;3547;50.774;12.918;2022-10-31T06:20:22;4.60;;;2.90;;
7013;SDS011;3547;50.774;12.918;2022-10-31T06:22:48;4.67;;;3.07;;
7013;SDS011;3547;50.774;12.918;2022-10-31T06:28:04;2.90;;;2.50;;
7013;SDS011;3547;50.774;12.918;2022-10-31T06:33:53;3.47;;;2.60;;
7013;SDS011;3547;50.774;12.918;2022-10-31T06:36:22;4.23;;;2.90;;
7013;SDS011;3547;50.774;12.918;2022-10-31T06:41:30;4.87;;;2.93;;
7013;SDS011;3547;50.774;12.918;2022-10-31T06:44:03;4.93;;;3.03;;
7013;SDS011;3547;50.774;12.918;2022-10-31T06:46:29;7.40;;;3.80;;
7013;SDS011;3547;50.774;12.918;2022-10-31T06:49:14;6.90;;;3.60;;
7013;SDS011;3547;50.774;12.918;2022-10-31T06:56:52;4.70;;;3.30;;
7013;SDS011;3547;50.774;12.918;2022-10-31T06:59:18;7.00;;;3.30;;
7013;SDS011;3547;50.774;12.918;2022-10-31T07:07:04;4.23;;;3.83;;
7013;SDS011;3547;50.774;12.918;2022-10-31T07:09:36;5.30;;;3.37;;
7013;SDS011;3547;50.774;12.918;2022-10-31T07:12:08;7.00;;;3.53;;
7013;SDS011;3547;50.774;12.918;2022-10-31T07:17:11;5.87;;;2.90;;
7013;SDS011;3547;50.774;12.918;2022-10-31T07:19:37;4.37;;;3.63;;
7013;SDS011;3547;50.774;12.918;2022-10-31T07:22:03;10.83;;;3.80;;
7013;SDS011;3547;50.774;12.918;2022-10-31T07:24:32;3.97;;;3.13;;
7013;SDS011;3547;50.774;12.918;2022-10-31T07:26:58;5.07;;;3.30;;
7013;SDS011;3547;50.774;12.918;2022-10-31T07:29:24;4.17;;;3.70;;
7013;SDS011;3547;50.774;12.918;2022-10-31T07:31:54;6.43;;;3.90;;
7013;SDS011;3547;50.774;12.918;2022-10-31T07:34:20;6.57;;;4.00;;
7013;SDS011;3547;50.774;12.918;2022-10-31T07:36:46;7.27;;;3.50;;
7013;SDS011;3547;50.774;12.918;2022-10-31T07:39:12;6.23;;;4.10;;
7013;SDS011;3547;50.774;12.918;2022-10-31T07:41:39;4.97;;;3.57;;
7013;SDS011;3547;50.774;12.918;2022-10-31T07:44:05;10.10;;;4.43;;
7013;SDS011;3547;50.774;12.918;2022-10-31T07:46:31;5.73;;;4.03;;
7013;SDS011;3547;50.774;12.918;2022-10-31T07:48:57;5.37;;;4.00;;
7013;SDS011;3547;50.774;12.918;2022-10-31T07:51:23;4.03;;;3.27;;
7013;SDS011;3547;50.774;12.918;2022-10-31T07:53:49;5.70;;;3.80;;
7013;SDS011;3547;50.774;12.918;2022-10-31T07:56:15;6.30;;;3.77;;
7013;SDS011;3547;50.774;12.918;2022-10-31T07:58:42;9.13;;;4.50;;
7013;SDS011;3547;50.774;12.918;2022-10-31T08:01:11;4.70;;;3.80;;
7013;SDS011;3547;50.774;12.918;2022-10-31T08:03:37;6.23;;;3.83;;
7013;SDS011;3547;50.774;12.918;2022-10-31T08:06:03;8.03;;;3.83;;
7013;SDS011;3547;50.774;12.918;2022-10-31T08:08:33;7.10;;;4.10;;
7013;SDS011;3547;50.774;12.918;2022-10-31T08:10:59;7.80;;;3.87;;
7013;SDS011;3547;50.774;12.918;2022-10-31T08:26:34;8.13;;;4.00;;
7013;SDS011;3547;50.774;12.918;2022-10-31T08:29:02;4.87;;;3.67;;
7013;SDS011;3547;50.774;12.918;2022-10-31T08:31:28;7.13;;;3.80;;
7013;SDS011;3547;50.774;12.918;2022-10-31T08:33:54;5.23;;;3.10;;
7013;SDS011;3547;50.774;12.918;2022-10-31T08:36:21;7.87;;;4.10;;
7013;SDS011;3547;50.774;12.918;2022-10-31T08:41:23;6.63;;;3.90;;
7013;SDS011;3547;50.774;12.918;2022-10-31T08:46:27;7.60;;;3.47;;
7013;SDS011;3547;50.774;12.918;2022-10-31T08:49:03;3.93;;;2.87;;
7013;SDS011;3547;50.774;12.918;2022-10-31T08:51:32;9.87;;;3.57;;
7013;SDS011;3547;50.774;12.918;2022-10-31T08:56:34;8.03;;;4.90;;
7013;SDS011;3547;50.774;12.918;2022-10-31T08:59:00;8.70;;;4.43;;
7013;SDS011;3547;50.774;12.918;2022-10-31T09:04:02;21.63;;;8.93;;
7013;SDS011;3547;50.774;12.918;2022-10-31T09:06:28;27.97;;;11.97;;
7013;SDS011;3547;50.774;12.918;2022-10-31T09:08:55;20.10;;;8.50;;
7013;SDS011;3547;50.774;12.918;2022-10-31T09:11:24;22.70;;;8.33;;
7013;SDS011;3547;50.774;12.918;2022-10-31T09:13:53;7.97;;;4.50;;
7013;SDS011;3547;50.774;12.918;2022-10-31T09:16:19;8.30;;;4.13;;
7013;SDS011;3547;50.774;12.918;2022-10-31T09:18:46;6.37;;;2.87;;
7013;SDS011;3547;50.774;12.918;2022-10-31T09:21:12;6.83;;;2.80;;
7013;SDS011;3547;50.774;12.918;2022-10-31T09:23:38;4.83;;;3.00;;
7013;SDS011;3547;50.774;12.918;2022-10-31T09:26:04;4.73;;;2.87;;
7013;SDS011;3547;50.774;12.918;2022-10-31T09:28:30;4.23;;;2.83;;
7013;SDS011;3547;50.774;12.918;2022-10-31T09:30:57;5.03;;;2.50;;
7013;SDS011;3547;50.774;12.918;2022-10-31T09:33:24;6.20;;;3.30;;
7013;SDS011;3547;50.774;12.918;2022-10-31T09:35:50;5.43;;;2.67;;
7013;SDS011;3547;50.774;12.918;2022-10-31T09:38:17;3.63;;;2.27;;
7013;SDS011;3547;50.774;12.918;2022-10-31T09:40:46;5.67;;;2.63;;
7013;SDS011;3547;50.774;12.918;2022-10-31T09:46:35;4.90;;;2.50;;
7013;SDS011;3547;50.774;12.918;2022-10-31T09:52:57;8.32;;;2.50;;
7013;SDS011;3547;50.774;12.918;2022-10-31T09:55:05;4.47;;;2.40;;
7013;SDS011;3547;50.774;12.918;2022-10-31T09:57:43;7.70;;;2.55;;
7013;SDS011;3547;50.774;12.918;2022-10-31T10:00:18;2.85;;;2.40;;
7013;SDS011;3547;50.774;12.918;2022-10-31T10:02:56;4.22;;;2.15;;
7013;SDS011;3547;50.774;12.918;2022-10-31T10:08:41;3.95;;;2.20;;
7013;SDS011;3547;50.774;12.918;2022-10-31T10:13:58;5.63;;;2.13;;
7013;SDS011;3547;50.774;12.918;2022-10-31T10:30:37;3.58;;;2.38;;
7013;SDS011;3547;50.774;12.918;2022-10-31T10:35:58;4.63;;;2.25;;
7013;SDS011;3547;50.774;12.918;2022-10-31T10:38:42;2.90;;;1.92;;
7013;SDS011;3547;50.774;12.918;2022-10-31T10:41:28;7.60;;;2.42;;
7013;SDS011;3547;50.774;12.918;2022-10-31T10:43:57;2.55;;;2.00;;
7013;SDS011;3547;50.774;12.918;2022-10-31T10:46:33;2.88;;;2.28;;
7013;SDS011;3547;50.774;12.918;2022-10-31T10:49:36;2.92;;;2.03;;
7013;SDS011;3547;50.774;12.918;2022-10-31T10:55:32;3.58;;;2.25;;
7013;SDS011;3547;50.774;12.918;2022-10-31T10:58:08;4.80;;;2.10;;
7013;SDS011;3547;50.774;12.918;2022-10-31T11:00:38;2.75;;;2.03;;
7013;SDS011;3547;50.774;12.918;2022-10-31T11:03:09;4.25;;;2.38;;
7013;SDS011;3547;50.774;12.918;2022-10-31T11:08:24;4.38;;;2.38;;
7013;SDS011;3547;50.774;12.918;2022-10-31T11:11:04;2.70;;;2.13;;
7013;SDS011;3547;50.774;12.918;2022-10-31T11:13:44;6.00;;;2.58;;
7013;SDS011;3547;50.774;12.918;2022-10-31T11:16:27;3.10;;;2.55;;
7013;SDS011;3547;50.774;12.918;2022-10-31T11:19:29;3.85;;;2.25;;
7013;SDS011;3547;50.774;12.918;2022-10-31T11:21:54;2.88;;;1.85;;
7013;SDS011;3547;50.774;12.918;2022-10-31T11:24:35;6.70;;;2.35;;
7013;SDS011;3547;50.774;12.918;2022-10-31T11:27:20;4.95;;;2.70;;
7013;SDS011;3547;50.774;12.918;2022-10-31T11:29:48;5.13;;;2.65;;
7013;SDS011;3547;50.774;12.918;2022-10-31T11:32:26;5.35;;;2.25;;
7013;SDS011;3547;50.774;12.918;2022-10-31T11:34:54;2.35;;;1.83;;
7013;SDS011;3547;50.774;12.918;2022-10-31T11:37:25;3.60;;;2.10;;
7013;SDS011;3547;50.774;12.918;2022-10-31T11:39:58;8.32;;;2.53;;
7013;SDS011;3547;50.774;12.918;2022-10-31T11:42:28;3.70;;;2.42;;
7013;SDS011;3547;50.774;12.918;2022-10-31T11:45:00;8.43;;;2.28;;
7013;SDS011;3547;50.774;12.918;2022-10-31T11:47:31;2.50;;;2.10;;
7013;SDS011;3547;50.774;12.918;2022-10-31T11:50:00;3.88;;;2.58;;
7013;SDS011;3547;50.774;12.918;2022-10-31T11:52:36;2.47;;;2.08;;
7013;SDS011;3547;50.774;12.918;2022-10-31T11:55:15;5.07;;;2.42;;
7013;SDS011;3547;50.774;12.918;2022-10-31T11:57:45;3.25;;;2.15;;
7013;SDS011;3547;50.774;12.918;2022-10-31T12:00:24;5.50;;;2.33;;
7013;SDS011;3547;50.774;12.918;2022-10-31T12:03:23;4.72;;;2.53;;
7013;SDS011;3547;50.774;12.918;2022-10-31T12:05:53;5.57;;;1.83;;
7013;SDS011;3547;50.774;12.918;2022-10-31T12:08:28;6.38;;;2.08;;
7013;SDS011;3547;50.774;12.918;2022-10-31T12:11:07;6.38;;;2.22;;
7013;SDS011;3547;50.774;12.918;2022-10-31T12:13:50;3.03;;;2.03;;
7013;SDS011;3547;50.774;12.918;2022-10-31T12:16:29;4.18;;;2.15;;
7013;SDS011;3547;50.774;12.918;2022-10-31T12:21:48;3.75;;;2.20;;
7013;SDS011;3547;50.774;12.918;2022-10-31T12:24:35;2.97;;;2.50;;
7013;SDS011;3547;50.774;12.918;2022-10-31T12:30:12;4.25;;;2.25;;
7013;SDS011;3547;50.774;12.918;2022-10-31T12:40:59;6.43;;;2.20;;
7013;SDS011;3547;50.774;12.918;2022-10-31T12:44:08;3.30;;;2.05;;
7013;SDS011;3547;50.774;12.918;2022-10-31T12:46:51;5.88;;;2.08;;
7013;SDS011;3547;50.774;12.918;2022-10-31T12:57:51;4.78;;;3.03;;
7013;SDS011;3547;50.774;12.918;2022-10-31T13:00:21;2.35;;;2.00;;
7013;SDS011;3547;50.774;12.918;2022-10-31T13:05:23;5.07;;;2.10;;
7013;SDS011;3547;50.774;12.918;2022-10-31T13:14:02;7.45;;;2.17;;
7013;SDS011;3547;50.774;12.918;2022-10-31T13:16:46;7.82;;;2.58;;
7013;SDS011;3547;50.774;12.918;2022-10-31T13:19:16;4.63;;;2.33;;
7013;SDS011;3547;50.774;12.918;2022-10-31T13:21:57;4.90;;;2.20;;
7013;SDS011;3547;50.774;12.918;2022-10-31T13:24:59;5.82;;;2.25;;
7013;SDS011;3547;50.774;12.918;2022-10-31T13:30:27;3.75;;;2.08;;
7013;SDS011;3547;50.774;12.918;2022-10-31T13:33:17;4.20;;;2.20;;
7013;SDS011;3547;50.774;12.918;2022-10-31T13:38:51;2.92;;;1.98;;
7013;SDS011;3547;50.774;12.918;2022-10-31T13:44:23;3.03;;;2.03;;
7013;SDS011;3547;50.774;12.918;2022-10-31T13:46:55;4.05;;;2.13;;
7013;SDS011;3547;50.774;12.918;2022-10-31T13:54:52;6.03;;;2.45;;
7013;SDS011;3547;50.774;12.918;2022-10-31T14:00:06;2.17;;;1.85;;
7013;SDS011;3547;50.774;12.918;2022-10-31T14:02:49;6.72;;;2.75;;
7013;SDS011;3547;50.774;12.918;2022-10-31T14:05:25;2.78;;;1.90;;
7013;SDS011;3547;50.774;12.918;2022-10-31T14:07:55;4.70;;;2.50;;
7013;SDS011;3547;50.774;12.918;2022-10-31T14:10:46;6.38;;;2.20;;
7013;SDS011;3547;50.774;12.918;2022-10-31T14:15:39;2.72;;;2.33;;
7013;SDS011;3547;50.774;12.918;2022-10-31T14:18:22;6.32;;;2.03;;
7013;SDS011;3547;50.774;12.918;2022-10-31T14:20:50;4.07;;;1.95;;
7013;SDS011;3547;50.774;12.918;2022-10-31T14:23:31;5.13;;;2.10;;
7013;SDS011;3547;50.774;12.918;2022-10-31T14:28:51;3.28;;;2.55;;
7013;SDS011;3547;50.774;12.918;2022-10-31T14:34:14;4.47;;;2.83;;
7013;SDS011;3547;50.774;12.918;2022-10-31T14:46:00;4.00;;;3.00;;
7013;SDS011;3547;50.774;12.918;2022-10-31T14:51:23;4.03;;;2.75;;
7013;SDS011;3547;50.774;12.918;2022-10-31T14:53:55;9.68;;;3.05;;
7013;SDS011;3547;50.774;12.918;2022-10-31T14:56:26;6.97;;;2.90;;
7013;SDS011;3547;50.774;12.918;2022-10-31T14:58:59;5.68;;;2.60;;
7013;SDS011;3547;50.774;12.918;2022-10-31T15:04:04;9.38;;;4.47;;
7013;SDS011;3547;50.774;12.918;2022-10-31T15:06:35;6.40;;;4.97;;
7013;SDS011;3547;50.774;12.918;2022-10-31T15:09:20;6.43;;;3.65;;
7013;SDS011;3547;50.774;12.918;2022-10-31T15:11:51;8.65;;;4.75;;
7013;SDS011;3547;50.774;12.918;2022-10-31T15:14:27;5.93;;;3.70;;
7013;SDS011;3547;50.774;12.918;2022-10-31T15:16:57;5.82;;;3.50;;
7013;SDS011;3547;50.774;12.918;2022-10-31T15:19:27;4.68;;;2.95;;
7013;SDS011;3547;50.774;12.918;2022-10-31T15:21:56;8.52;;;3.72;;
7013;SDS011;3547;50.774;12.918;2022-10-31T15:24:24;3.58;;;2.92;;
7013;SDS011;3547;50.774;12.918;2022-10-31T15:26:55;4.80;;;3.05;;
7013;SDS011;3547;50.774;12.918;2022-10-31T15:29:25;6.15;;;3.90;;
7013;SDS011;3547;50.774;12.918;2022-10-31T15:31:56;7.85;;;3.92;;
7013;SDS011;3547;50.774;12.918;2022-10-31T15:34:37;6.22;;;3.50;;
7013;SDS011;3547;50.774;12.918;2022-10-31T15:37:09;4.38;;;3.38;;
7013;SDS011;3547;50.774;12.918;2022-10-31T15:39:37;5.45;;;3.47;;
7013;SDS011;3547;50.774;12.918;2022-10-31T15:42:04;7.80;;;4.00;;
7013;SDS011;3547;50.774;12.918;2022-10-31T15:44:40;8.85;;;5.60;;
7013;SDS011;3547;50.774;12.918;2022-10-31T15:47:15;18.42;;;10.60;;
7013;SDS011;3547;50.774;12.918;2022-10-31T15:49:51;21.80;;;13.55;;
7013;SDS011;3547;50.774;12.918;2022-10-31T15:57:51;16.80;;;10.88;;
7013;SDS011;3547;50.774;12.918;2022-10-31T16:02:49;18.33;;;11.73;;
7013;SDS011;3547;50.774;12.918;2022-10-31T16:05:32;21.60;;;11.25;;
7013;SDS011;3547;50.774;12.918;2022-10-31T16:08:01;12.68;;;6.57;;
7013;SDS011;3547;50.774;12.918;2022-10-31T16:10:27;15.05;;;8.32;;
7013;SDS011;3547;50.774;12.918;2022-10-31T16:13:00;21.80;;;12.32;;
7013;SDS011;3547;50.774;12.918;2022-10-31T16:15:27;17.75;;;11.00;;
7013;SDS011;3547;50.774;12.918;2022-10-31T16:17:55;13.95;;;8.95;;
7013;SDS011;3547;50.774;12.918;2022-10-31T16:20:22;13.15;;;8.80;;
7013;SDS011;3547;50.774;12.918;2022-10-31T16:22:53;12.50;;;7.70;;
7013;SDS011;3547;50.774;12.918;2022-10-31T16:25:26;16.40;;;10.75;;
7013;SDS011;3547;50.774;12.918;2022-10-31T16:28:04;23.35;;;10.25;;
7013;SDS011;3547;50.774;12.918;2022-10-31T16:30:56;13.27;;;8.02;;
7013;SDS011;3547;50.774;12.918;2022-10-31T16:33:24;8.02;;;6.40;;
7013;SDS011;3547;50.774;12.918;2022-10-31T16:38:59;9.50;;;6.05;;
7013;SDS011;3547;50.774;12.918;2022-10-31T16:41:25;9.20;;;5.40;;
7013;SDS011;3547;50.774;12.918;2022-10-31T16:43:51;7.90;;;5.57;;
7013;SDS011;3547;50.774;12.918;2022-10-31T16:46:23;13.40;;;6.13;;
7013;SDS011;3547;50.774;12.918;2022-10-31T16:48:51;6.18;;;4.90;;
7013;SDS011;3547;50.774;12.918;2022-10-31T16:51:18;8.93;;;5.30;;
7013;SDS011;3547;50.774;12.918;2022-10-31T16:53:44;11.82;;;5.60;;
7013;SDS011;3547;50.774;12.918;2022-10-31T16:56:14;6.38;;;4.57;;
7013;SDS011;3547;50.774;12.918;2022-10-31T16:58:42;12.07;;;5.68;;
7013;SDS011;3547;50.774;12.918;2022-10-31T17:01:09;7.65;;;5.18;;
7013;SDS011;3547;50.774;12.918;2022-10-31T17:03:38;9.63;;;6.45;;
7013;SDS011;3547;50.774;12.918;2022-10-31T17:06:04;11.18;;;7.30;;
7013;SDS011;3547;50.774;12.918;2022-10-31T17:08:31;9.63;;;6.15;;
7013;SDS011;3547;50.774;12.918;2022-10-31T17:10:58;13.02;;;6.95;;
7013;SDS011;3547;50.774;12.918;2022-10-31T17:13:25;10.60;;;5.57;;
7013;SDS011;3547;50.774;12.918;2022-10-31T17:15:55;8.90;;;4.82;;
7013;SDS011;3547;50.774;12.918;2022-10-31T17:18:23;8.48;;;3.75;;
7013;SDS011;3547;50.774;12.918;2022-10-31T17:20:49;10.20;;;4.35;;
7013;SDS011;3547;50.774;12.918;2022-10-31T17:23:16;7.55;;;3.72;;
7013;SDS011;3547;50.774;12.918;2022-10-31T17:25:43;9.10;;;5.47;;
7013;SDS011;3547;50.774;12.918;2022-10-31T17:28:10;8.45;;;5.15;;
7013;SDS011;3547;50.774;12.918;2022-10-31T17:30:38;6.50;;;5.30;;
7013;SDS011;3547;50.774;12.918;2022-10-31T17:33:06;10.48;;;5.78;;
7013;SDS011;3547;50.774;12.918;2022-10-31T17:35:40;7.75;;;6.00;;
7013;SDS011;3547;50.774;12.918;2022-10-31T17:38:06;7.78;;;5.03;;
7013;SDS011;3547;50.774;12.918;2022-10-31T17:40:33;8.43;;;6.32;;
7013;SDS011;3547;50.774;12.918;2022-10-31T17:43:01;7.97;;;5.87;;
7013;SDS011;3547;50.774;12.918;2022-10-31T17:45:27;10.80;;;6.35;;
7013;SDS011;3547;50.774;12.918;2022-10-31T17:47:53;11.18;;;6.60;;
7013;SDS011;3547;50.774;12.918;2022-10-31T17:50:20;10.50;;;5.53;;
7013;SDS011;3547;50.774;12.918;2022-10-31T17:52:48;10.68;;;6.45;;
7013;SDS011;3547;50.774;12.918;2022-10-31T17:55:15;9.77;;;6.75;;
7013;SDS011;3547;50.774;12.918;2022-10-31T17:57:44;10.93;;;6.85;;
7013;SDS011;3547;50.774;12.918;2022-10-31T18:00:12;9.48;;;6.18;;
7013;SDS011;3547;50.774;12.918;2022-10-31T18:02:40;10.25;;;5.40;;
7013;SDS011;3547;50.774;12.918;2022-10-31T18:05:06;10.75;;;6.90;;
7013;SDS011;3547;50.774;12.918;2022-10-31T18:07:33;17.50;;;7.40;;
7013;SDS011;3547;50.774;12.918;2022-10-31T18:10:00;12.90;;;7.35;;
7013;SDS011;3547;50.774;12.918;2022-10-31T18:12:27;13.70;;;7.00;;
7013;SDS011;3547;50.774;12.918;2022-10-31T18:14:53;9.87;;;6.33;;
7013;SDS011;3547;50.774;12.918;2022-10-31T18:17:23;17.02;;;7.05;;
7013;SDS011;3547;50.774;12.918;2022-10-31T18:19:49;11.05;;;6.45;;
7013;SDS011;3547;50.774;12.918;2022-10-31T18:22:16;7.35;;;5.43;;
7013;SDS011;3547;50.774;12.918;2022-10-31T18:24:53;9.50;;;6.50;;
7013;SDS011;3547;50.774;12.918;2022-10-31T18:27:19;11.17;;;6.50;;
7013;SDS011;3547;50.774;12.918;2022-10-31T18:29:46;12.63;;;7.68;;
7013;SDS011;3547;50.774;12.918;2022-10-31T18:32:12;14.57;;;8.45;;
7013;SDS011;3547;50.774;12.918;2022-10-31T18:34:38;11.90;;;8.33;;
7013;SDS011;3547;50.774;12.918;2022-10-31T18:37:04;12.65;;;7.90;;
7013;SDS011;3547;50.774;12.918;2022-10-31T18:39:30;10.17;;;7.20;;
7013;SDS011;3547;50.774;12.918;2022-10-31T18:41:56;8.13;;;5.87;;
7013;SDS011;3547;50.774;12.918;2022-10-31T18:44:23;8.07;;;5.77;;
7013;SDS011;3547;50.774;12.918;2022-10-31T18:46:49;7.47;;;4.50;;
7013;SDS011;3547;50.774;12.918;2022-10-31T18:49:15;8.07;;;4.63;;
7013;SDS011;3547;50.774;12.918;2022-10-31T18:51:47;7.10;;;3.90;;
7013;SDS011;3547;50.774;12.918;2022-10-31T18:54:14;7.80;;;3.50;;
7013;SDS011;3547;50.774;12.918;2022-10-31T18:56:40;5.77;;;3.30;;
7013;SDS011;3547;50.774;12.918;2022-10-31T18:59:08;10.60;;;7.70;;
7013;SDS011;3547;50.774;12.918;2022-10-31T19:01:34;10.67;;;7.43;;
7013;SDS011;3547;50.774;12.918;2022-10-31T19:04:00;14.13;;;7.60;;